Time;durP1;ratioP1;P1;durP2;ratioP2;P2;SDS_P1;SDS_P2;PMS_P1;PMS_P2;Temp;Humidity;BMP_temperature;BMP_pressure;BME280_temperature;BME280_humidity;BME280_pressure;Samples;Min_cycle;Max_cycle;Signal;HPM_P1;HPM_P2
2023/05/21 00:00:47;;;;;;;23.38;16.70;;;16.10;99.90;;;15.48;100.00;96945.88;6095455;23;20387;-75
2023/05/21 00:03:14;;;;;;;23.98;17.02;;;16.00;99.90;;;15.44;100.00;96933.41;6095439;23;20882;-76
2023/05/21 00:05:41;;;;;;;27.10;16.58;;;16.00;99.90;;;15.40;100.00;96943.06;6095985;23;20727;-75
2023/05/21 00:08:07;;;;;;;24.47;16.50;;;16.00;99.90;;;15.34;100.00;96944.22;6095440;23;20382;-76
2023/05/21 00:10:35;;;;;;;26.23;16.75;;;16.00;99.90;;;15.28;100.00;96934.72;6094938;23;20748;-76
2023/05/21 00:13:01;;;;;;;23.75;16.08;;;15.90;99.90;;;15.24;100.00;96939.06;6095353;23;20472;-76
2023/05/21 00:15:27;;;;;;;25.25;17.38;;;15.90;99.90;;;15.18;100.00;96938.38;6095538;23;20374;-76
2023/05/21 00:17:54;;;;;;;25.80;15.95;;;15.80;99.90;;;15.12;100.00;96936.84;6095902;23;20425;-76
2023/05/21 00:20:20;;;;;;;23.45;16.70;;;15.70;99.90;;;15.06;100.00;96930.81;6095638;23;20421;-75
2023/05/21 00:22:47;;;;;;;21.75;16.77;;;15.70;99.90;;;14.99;100.00;96919.72;6069414;23;20402;-76
2023/05/21 00:25:13;;;;;;;25.15;16.27;;;15.60;99.90;;;14.91;100.00;96925.72;6095075;23;20375;-76
2023/05/21 00:27:40;;;;;;;27.20;17.15;;;15.50;99.90;;;14.87;100.00;96927.38;6095469;23;20711;-76
2023/05/21 00:30:07;;;;;;;25.02;16.30;;;15.50;99.90;;;14.92;100.00;96927.28;6095084;23;20717;-76
2023/05/21 00:32:33;;;;;;;25.08;16.83;;;15.50;99.90;;;14.84;100.00;96919.94;6070200;23;20473;-76
2023/05/21 00:34:59;;;;;;;28.55;17.90;;;15.50;99.90;;;14.78;100.00;96917.66;6070494;23;20441;-76
2023/05/21 00:37:25;;;;;;;25.27;17.77;;;15.40;99.90;;;14.78;100.00;96915.78;6095467;23;20882;-76
2023/05/21 00:39:51;;;;;;;26.83;17.25;;;15.40;99.90;;;14.78;100.00;96918.44;6095269;23;20389;-76
2023/05/21 00:42:17;;;;;;;27.13;17.63;;;15.40;99.90;;;14.72;100.00;96914.28;6069818;23;20465;-76
2023/05/21 00:44:45;;;;;;;21.77;16.20;;;15.30;99.90;;;14.72;100.00;96908.94;6069930;23;20413;-76
2023/05/21 00:47:12;;;;;;;26.45;18.20;;;15.30;99.90;;;14.77;100.00;96900.88;6095860;23;20393;-75
2023/05/21 00:49:38;;;;;;;25.30;17.75;;;15.40;99.90;;;14.73;100.00;96903.31;6070004;23;20386;-75
2023/05/21 00:52:06;;;;;;;25.63;18.02;;;15.40;99.90;;;14.71;100.00;96896.72;6069492;23;20391;-76
2023/05/21 00:54:32;;;;;;;28.73;18.00;;;15.30;99.90;;;14.69;100.00;96912.19;6095100;23;20398;-76
2023/05/21 00:56:58;;;;;;;30.50;19.42;;;15.30;99.90;;;14.63;100.00;96900.81;6095108;23;20362;-76
2023/05/21 00:59:25;;;;;;;26.05;18.25;;;15.30;99.90;;;14.69;100.00;96902.31;6094805;23;20418;-76
2023/05/21 01:01:55;;;;;;;26.35;18.80;;;15.30;99.90;;;14.65;100.00;96901.31;6095303;23;20366;-76
2023/05/21 01:04:22;;;;;;;31.45;19.00;;;15.30;99.90;;;14.63;100.00;96892.81;6095274;23;20374;-76
2023/05/21 01:06:48;;;;;;;29.13;18.88;;;15.30;99.90;;;14.63;100.00;96900.03;6094336;23;20382;-76
2023/05/21 01:09:14;;;;;;;30.73;19.97;;;15.30;99.90;;;14.60;100.00;96898.72;6095038;23;20461;-76
2023/05/21 01:11:43;;;;;;;31.83;18.52;;;15.20;99.90;;;14.61;100.00;96896.84;6094917;23;20374;-76
2023/05/21 01:14:12;;;;;;;30.60;19.55;;;15.20;99.90;;;14.57;100.00;96899.31;6095102;23;20389;-76
2023/05/21 01:16:40;;;;;;;29.88;19.00;;;15.20;99.90;;;14.60;100.00;96905.91;6095778;23;20454;-77
2023/05/21 01:19:15;;;;;;;29.88;20.10;;;15.20;99.90;;;14.56;100.00;96888.94;6095317;23;20370;-76
2023/05/21 01:21:45;;;;;;;29.83;19.55;;;15.20;99.90;;;14.54;100.00;96896.41;6094960;23;20370;-77
2023/05/21 01:24:13;;;;;;;28.60;19.30;;;15.20;99.90;;;14.61;100.00;96889.66;6069098;23;20390;-75
2023/05/21 01:26:41;;;;;;;29.20;20.27;;;15.20;99.90;;;14.61;100.00;96894.97;6094987;23;20370;-75
2023/05/21 01:29:11;;;;;;;31.13;20.67;;;15.20;99.90;;;14.55;100.00;96884.69;6095054;23;20374;-76
2023/05/21 01:31:51;;;;;;;31.42;19.98;;;15.20;99.90;;;14.53;100.00;96887.63;6094503;23;20398;-75
2023/05/21 01:34:22;;;;;;;29.93;19.63;;;15.20;99.90;;;14.49;100.00;96886.63;6094558;23;20394;-75
2023/05/21 01:36:59;;;;;;;26.38;18.90;;;15.10;99.90;;;14.45;100.00;96887.47;6094967;23;20936;-76
2023/05/21 01:39:36;;;;;;;27.10;18.87;;;15.10;99.90;;;14.44;100.00;96883.22;6094704;23;20449;-76
2023/05/21 01:42:04;;;;;;;33.75;20.75;;;15.10;99.90;;;14.44;100.00;96892.00;6095164;23;20839;-76
2023/05/21 01:44:33;;;;;;;27.67;18.70;;;15.10;99.90;;;14.38;100.00;96882.53;6094545;23;20683;-75
2023/05/21 01:47:00;;;;;;;26.35;18.80;;;15.00;99.90;;;14.46;100.00;96878.41;6094317;23;20377;-76
2023/05/21 01:49:27;;;;;;;27.38;18.55;;;15.00;99.90;;;14.34;100.00;96884.94;6068706;23;20375;-76
2023/05/21 01:51:54;;;;;;;28.40;19.50;;;15.00;99.90;;;14.36;100.00;96881.22;6068539;23;20425;-76
2023/05/21 01:54:20;;;;;;;28.67;19.57;;;14.90;99.90;;;14.28;100.00;96882.66;6093736;23;20434;-76
2023/05/21 01:56:49;;;;;;;28.50;19.60;;;14.90;99.90;;;14.23;100.00;96880.81;6069473;23;20382;-76
2023/05/21 01:59:16;;;;;;;32.13;19.33;;;14.90;99.90;;;14.18;100.00;96878.22;6094250;23;20371;-75
2023/05/21 02:01:42;;;;;;;28.90;20.40;;;14.80;99.90;;;14.15;100.00;96881.47;6093972;23;20406;-75
2023/05/21 02:04:07;;;;;;;29.63;19.23;;;14.80;99.90;;;14.10;100.00;96881.53;6069192;23;20378;-77
2023/05/21 02:06:34;;;;;;;32.28;20.95;;;14.70;99.90;;;14.08;100.00;96877.56;6094424;23;20385;-76
2023/05/21 02:09:01;;;;;;;30.33;20.67;;;14.70;99.90;;;14.03;100.00;96874.97;6069482;23;20394;-76
2023/05/21 02:11:27;;;;;;;34.47;20.75;;;14.70;99.90;;;14.02;100.00;96882.16;6094105;23;20370;-77
2023/05/21 02:13:56;;;;;;;27.87;19.63;;;14.60;99.90;;;14.03;100.00;96880.28;6093942;23;20512;-76
2023/05/21 02:16:22;;;;;;;31.50;20.10;;;14.60;99.90;;;13.98;100.00;96877.69;6094539;23;20864;-78
2023/05/21 02:18:52;;;;;;;32.00;20.33;;;14.60;99.90;;;13.94;100.00;96877.47;6094415;23;20898;-76
2023/05/21 02:21:19;;;;;;;33.30;21.40;;;14.60;99.90;;;13.97;100.00;96884.09;6094585;23;20386;-76
2023/05/21 02:23:45;;;;;;;29.98;19.73;;;14.60;99.90;;;13.90;100.00;96877.25;6094365;23;20370;-75
2023/05/21 02:26:11;;;;;;;30.23;20.25;;;14.60;99.90;;;13.88;100.00;96878.59;6094299;23;20377;-75
2023/05/21 02:28:37;;;;;;;30.58;20.45;;;14.50;99.90;;;13.87;100.00;96879.69;6094453;23;20374;-75
2023/05/21 02:31:05;;;;;;;34.45;21.45;;;14.50;99.90;;;13.87;100.00;96874.34;6068869;23;20374;-76
2023/05/21 02:33:30;;;;;;;33.67;21.48;;;14.50;99.90;;;13.82;100.00;96869.09;6093887;23;20707;-76
2023/05/21 02:35:56;;;;;;;30.42;20.30;;;14.50;99.90;;;13.80;100.00;96874.69;6068921;23;20375;-76
2023/05/21 02:38:24;;;;;;;29.48;20.92;;;14.50;99.90;;;13.87;100.00;96871.69;6093955;23;20835;-75
2023/05/21 02:40:50;;;;;;;30.98;21.05;;;14.50;99.90;;;13.82;100.00;96877.09;6093812;23;20386;-76
2023/05/21 02:43:17;;;;;;;30.83;19.27;;;14.50;99.90;;;13.79;100.00;96867.78;6093759;23;20752;-75
2023/05/21 02:45:43;;;;;;;32.30;20.52;;;14.50;99.90;;;13.76;100.00;96868.34;6094103;23;20422;-75
2023/05/21 02:48:11;;;;;;;31.08;19.83;;;14.40;99.90;;;13.76;100.00;96872.88;6094724;23;20398;-75
2023/05/21 02:50:37;;;;;;;29.50;19.13;;;14.40;99.90;;;13.72;100.00;96869.22;6093939;23;20366;-75
2023/05/21 02:53:03;;;;;;;31.90;21.05;;;14.40;99.90;;;13.69;100.00;96864.44;6093715;23;20389;-75
2023/05/21 02:55:29;;;;;;;31.35;21.10;;;14.30;99.90;;;13.65;100.00;96868.75;6093868;23;20375;-75
2023/05/21 02:57:55;;;;;;;28.05;20.08;;;14.30;99.90;;;13.61;100.00;96865.09;6094072;23;20383;-75
2023/05/21 03:00:21;;;;;;;30.77;20.65;;;14.30;99.90;;;13.58;100.00;96869.09;6068445;23;20440;-75
2023/05/21 03:02:47;;;;;;;30.17;21.30;;;14.20;99.90;;;13.56;100.00;96869.38;6093648;23;20426;-75
2023/05/21 03:05:15;;;;;;;32.58;21.63;;;14.20;99.90;;;13.56;100.00;96868.59;6093917;23;20393;-75
2023/05/21 03:07:42;;;;;;;32.83;20.45;;;14.20;99.90;;;13.55;100.00;96859.81;6093897;23;20378;-75
2023/05/21 03:10:10;;;;;;;29.60;19.65;;;14.20;99.90;;;13.51;100.00;96858.00;6094143;23;20429;-75
2023/05/21 03:12:36;;;;;;;31.27;20.25;;;14.20;99.90;;;13.50;100.00;96851.91;6093513;23;20389;-76
2023/05/21 03:15:04;;;;;;;32.78;21.35;;;14.20;99.90;;;13.47;100.00;96851.66;6094431;23;20454;-75
2023/05/21 03:17:30;;;;;;;30.48;21.13;;;14.10;99.90;;;13.41;100.00;96856.25;6093870;23;20434;-75
2023/05/21 03:19:56;;;;;;;33.92;20.60;;;14.10;99.90;;;13.41;100.00;96852.78;6093858;23;20465;-76
2023/05/21 03:22:24;;;;;;;32.67;21.20;;;14.00;99.90;;;13.34;100.00;96857.66;6095428;23;20826;-75
2023/05/21 03:24:50;;;;;;;31.45;21.33;;;14.00;99.90;;;13.32;100.00;96851.81;6070659;23;20390;-75
2023/05/21 03:27:16;;;;;;;31.52;21.15;;;14.00;99.90;;;13.30;100.00;96852.13;6095974;23;20374;-77
2023/05/21 03:29:42;;;;;;;33.93;21.53;;;14.00;99.90;;;13.23;100.00;96861.50;6095677;23;20369;-75
2023/05/21 03:32:08;;;;;;;31.98;22.70;;;13.90;99.90;;;13.21;100.00;96853.78;6069734;23;20386;-75
2023/05/21 03:34:34;;;;;;;32.67;21.02;;;13.90;99.90;;;13.23;100.00;96854.28;6095958;23;20458;-75
2023/05/21 03:37:00;;;;;;;34.55;22.38;;;13.90;99.90;;;13.19;100.00;96853.28;6096338;23;20382;-75
2023/05/21 03:39:27;;;;;;;31.63;22.23;;;13.90;99.90;;;13.14;100.00;96854.13;6095931;23;20527;-75
2023/05/21 03:41:53;;;;;;;31.02;20.73;;;13.80;99.90;;;13.14;100.00;96848.00;6095647;23;20375;-76
2023/05/21 03:44:19;;;;;;;34.78;22.98;;;13.80;99.90;;;13.13;100.00;96847.22;6095507;23;20394;-75
2023/05/21 03:46:45;;;;;;;35.00;21.92;;;13.80;99.90;;;13.12;100.00;96839.50;6096175;23;20754;-76
2023/05/21 03:49:12;;;;;;;33.33;22.08;;;13.80;99.90;;;13.10;100.00;96841.63;6096202;23;20905;-75
2023/05/21 03:51:38;;;;;;;33.80;22.42;;;13.80;99.90;;;13.09;100.00;96848.81;6095728;23;20377;-76
2023/05/21 03:54:04;;;;;;;33.92;22.25;;;13.80;99.90;;;13.10;100.00;96852.25;6095372;23;20830;-75
2023/05/21 03:56:31;;;;;;;35.47;24.17;;;13.80;99.90;;;13.13;100.00;96854.41;6096373;23;20385;-75
2023/05/21 03:58:57;;;;;;;33.00;22.58;;;13.80;99.90;;;13.11;100.00;96853.84;6096091;23;20417;-75
2023/05/21 04:01:23;;;;;;;33.45;22.73;;;13.80;99.90;;;13.12;100.00;96866.88;6095642;23;20413;-76
2023/05/21 04:03:49;;;;;;;33.95;22.13;;;13.80;99.90;;;13.14;100.00;96867.41;6095454;23;20362;-75
2023/05/21 04:06:15;;;;;;;29.90;20.58;;;13.80;99.90;;;13.15;100.00;96868.22;6095499;23;20371;-75
2023/05/21 04:08:42;;;;;;;34.97;22.52;;;13.80;99.90;;;13.15;100.00;96874.31;6095245;23;20375;-75
2023/05/21 04:11:08;;;;;;;33.38;22.73;;;13.80;99.90;;;13.13;100.00;96875.66;6095901;23;20378;-75
2023/05/21 04:13:35;;;;;;;33.63;22.20;;;13.80;99.90;;;13.18;100.00;96871.09;6096072;23;20466;-75
2023/05/21 04:16:01;;;;;;;34.85;22.42;;;13.90;99.90;;;13.19;100.00;96879.84;6095448;23;20381;-75
2023/05/21 04:18:27;;;;;;;35.10;21.88;;;13.90;99.90;;;13.21;100.00;96874.25;6095448;23;20375;-75
2023/05/21 04:20:53;;;;;;;41.92;22.88;;;13.80;99.90;;;13.24;100.00;96879.78;6095504;23;20386;-75
2023/05/21 04:23:19;;;;;;;32.00;21.60;;;13.90;99.90;;;13.25;100.00;96869.97;6095146;23;20379;-75
2023/05/21 04:25:49;;;;;;;30.40;20.90;;;13.90;99.90;;;13.32;100.00;96873.88;6095909;23;20442;-75
2023/05/21 04:28:18;;;;;;;32.53;22.13;;;14.00;99.90;;;13.30;100.00;96873.38;6095480;23;20406;-75
2023/05/21 04:30:46;;;;;;;31.55;20.63;;;14.00;99.90;;;13.35;100.00;96889.28;6069511;23;20394;-75
2023/05/21 04:33:16;;;;;;;35.00;22.67;;;14.00;99.90;;;13.41;100.00;96890.00;6094110;23;20392;-75
2023/05/21 04:35:43;;;;;;;33.92;22.00;;;14.00;99.90;;;13.42;100.00;96889.72;6069769;23;20386;-75
2023/05/21 04:38:09;;;;;;;32.60;21.83;;;14.10;99.90;;;13.44;100.00;96898.22;6096084;23;20747;-76
2023/05/21 04:40:35;;;;;;;34.80;21.67;;;14.10;99.90;;;13.45;100.00;96891.84;6095371;23;20390;-75
2023/05/21 04:43:01;;;;;;;36.08;22.42;;;14.10;99.90;;;13.50;100.00;96901.63;6094823;23;20458;-76
2023/05/21 04:45:28;;;;;;;31.73;22.27;;;14.10;99.90;;;13.52;100.00;96900.28;6095253;23;20831;-76
2023/05/21 04:47:59;;;;;;;33.03;21.42;;;14.10;99.90;;;13.50;100.00;96894.44;6095207;23;20374;-76
2023/05/21 04:50:25;;;;;;;31.92;22.38;;;14.20;99.90;;;13.53;100.00;96904.50;6095639;23;20874;-76
2023/05/21 04:52:53;;;;;;;33.40;21.73;;;14.10;99.90;;;13.59;100.00;96905.25;6094773;23;20449;-76
2023/05/21 04:55:19;;;;;;;35.33;21.63;;;14.20;99.90;;;13.62;100.00;96910.00;6094990;23;20410;-75
2023/05/21 04:57:45;;;;;;;27.83;20.40;;;14.30;99.90;;;13.70;100.00;96909.38;6095169;23;20374;-75
2023/05/21 05:00:12;;;;;;;34.05;21.60;;;14.30;99.90;;;13.70;100.00;96909.38;6095250;23;20461;-75
2023/05/21 05:02:38;;;;;;;33.88;21.92;;;14.40;99.90;;;13.73;100.00;96905.38;6068418;23;20430;-75
2023/05/21 05:05:07;;;;;;;37.65;22.80;;;14.40;99.90;;;13.77;100.00;96904.53;6095036;23;20397;-77
2023/05/21 05:07:33;;;;;;;31.00;20.90;;;14.40;99.90;;;13.88;100.00;96905.22;6094626;23;20442;-75
2023/05/21 05:09:58;;;;;;;29.90;20.83;;;14.50;99.90;;;13.91;100.00;96908.09;6095091;23;20453;-75
2023/05/21 05:12:24;;;;;;;33.30;21.45;;;14.50;99.90;;;13.97;100.00;96905.38;6094893;23;20377;-75
2023/05/21 05:14:50;;;;;;;34.15;20.80;;;14.60;99.90;;;14.02;100.00;96906.13;6095158;23;20375;-75
2023/05/21 05:17:17;;;;;;;32.30;21.55;;;14.60;99.90;;;14.08;100.00;96902.31;6094837;23;20370;-75
2023/05/21 05:19:43;;;;;;;35.22;21.80;;;14.70;99.90;;;14.13;100.00;96906.78;6094732;23;20446;-75
2023/05/21 05:22:10;;;;;;;32.60;21.80;;;14.70;99.90;;;14.21;100.00;96908.78;6094468;23;20466;-75
2023/05/21 05:24:37;;;;;;;32.30;22.38;;;14.80;99.90;;;14.28;100.00;96910.03;6091682;23;20382;-75
2023/05/21 05:27:03;;;;;;;30.10;20.08;;;14.80;99.90;;;14.38;100.00;96903.00;6094162;23;20453;-75
2023/05/21 05:29:29;;;;;;;32.75;20.60;;;14.90;99.90;;;14.44;100.00;96896.53;6093685;23;20374;-75
2023/05/21 05:31:55;;;;;;;29.10;20.20;;;15.00;99.90;;;14.52;100.00;96893.25;6092965;23;20374;-74
2023/05/21 05:34:21;;;;;;;30.23;21.00;;;15.10;99.90;;;14.60;100.00;96890.72;6093808;23;20374;-75
2023/05/21 05:36:53;;;;;;;32.80;21.33;;;15.10;99.90;;;14.69;100.00;96889.00;6067832;23;20763;-75
2023/05/21 05:39:20;;;;;;;28.77;20.67;;;15.30;99.90;;;14.81;100.00;96887.78;6093817;23;20457;-75
2023/05/21 05:41:46;;;;;;;29.98;20.50;;;15.30;99.90;;;14.93;100.00;96894.25;6094161;23;20385;-75
2023/05/21 05:44:12;;;;;;;29.23;20.13;;;15.50;99.90;;;15.04;100.00;96894.84;6068921;23;20406;-75
2023/05/21 05:46:38;;;;;;;30.88;19.40;;;15.60;99.90;;;15.16;100.00;96894.41;6094518;23;20381;-75
2023/05/21 05:49:03;;;;;;;30.95;19.88;;;15.70;99.90;;;15.27;100.00;96899.28;6094747;23;20409;-75
2023/05/21 05:51:29;;;;;;;30.25;20.52;;;15.90;99.90;;;15.36;100.00;96910.06;6067443;23;20367;-76
2023/05/21 05:53:55;;;;;;;29.08;20.17;;;16.00;99.90;;;15.44;100.00;96904.84;6094196;23;20758;-76
2023/05/21 05:56:22;;;;;;;30.23;20.15;;;16.10;99.90;;;15.52;100.00;96911.38;6094459;23;20367;-76
2023/05/21 05:58:48;;;;;;;31.20;20.40;;;16.10;99.90;;;15.60;100.00;96912.59;6094483;23;20822;-76
2023/05/21 06:01:15;;;;;;;28.58;20.13;;;16.20;99.90;;;15.67;100.00;96907.69;6094584;23;20392;-76
2023/05/21 06:03:42;;;;;;;29.30;20.40;;;16.20;99.90;;;15.94;100.00;96909.59;6094110;23;20457;-76
2023/05/21 06:06:08;;;;;;;31.00;20.87;;;16.40;99.90;;;15.96;100.00;96910.06;6094300;23;20514;-76
2023/05/21 06:08:34;;;;;;;32.47;20.33;;;16.50;99.90;;;16.07;100.00;96908.78;6093830;23;20370;-76
2023/05/21 06:11:00;;;;;;;25.42;18.58;;;16.60;99.90;;;16.10;100.00;96908.97;6094527;23;20374;-76
2023/05/21 06:13:28;;;;;;;29.15;19.55;;;16.60;99.90;;;16.05;100.00;96909.09;6094296;23;20378;-76
2023/05/21 06:15:53;;;;;;;32.40;20.90;;;16.60;99.90;;;16.08;100.00;96908.50;6094336;23;20710;-76
2023/05/21 06:18:19;;;;;;;32.47;20.55;;;16.60;99.90;;;16.10;100.00;96911.63;6094310;23;20374;-76
2023/05/21 06:20:45;;;;;;;28.50;20.13;;;16.70;99.90;;;16.20;100.00;96907.97;6094118;23;20910;-77
2023/05/21 06:23:11;;;;;;;28.45;19.25;;;16.70;99.90;;;16.26;100.00;96904.91;6093992;23;20453;-76
2023/05/21 06:25:39;;;;;;;28.90;20.20;;;16.80;99.90;;;16.39;100.00;96910.53;6094643;23;20406;-77
2023/05/21 06:28:05;;;;;;;28.30;19.42;;;16.90;99.90;;;16.48;100.00;96908.72;6093498;23;20519;-77
2023/05/21 06:30:34;;;;;;;25.95;18.85;;;17.00;99.90;;;16.58;100.00;96905.84;6093554;23;20852;-76
2023/05/21 06:33:00;;;;;;;25.40;18.92;;;17.10;99.90;;;16.70;100.00;96906.13;6092985;23;20853;-76
2023/05/21 06:35:26;;;;;;;26.48;19.05;;;17.20;99.90;;;16.75;100.00;96913.25;6093649;23;20378;-77
2023/05/21 06:37:52;;;;;;;26.30;18.65;;;17.30;99.90;;;16.83;100.00;96920.56;6093777;23;20378;-77
2023/05/21 06:40:17;;;;;;;27.60;18.48;;;17.30;99.90;;;16.85;100.00;96911.13;6093266;23;20447;-76
2023/05/21 06:42:43;;;;;;;28.85;19.17;;;17.40;99.90;;;16.87;100.00;96905.47;6093580;23;20374;-76
2023/05/21 06:45:11;;;;;;;27.58;18.35;;;17.40;99.90;;;16.91;100.00;96911.81;6093334;23;20457;-77
2023/05/21 06:47:38;;;;;;;27.83;18.33;;;17.50;99.90;;;16.96;100.00;96909.81;6093594;23;20375;-77
2023/05/21 06:50:05;;;;;;;28.17;18.25;;;17.50;99.90;;;17.02;100.00;96907.81;6068702;23;20379;-76
2023/05/21 06:52:31;;;;;;;27.60;18.42;;;17.60;99.90;;;17.04;100.00;96908.28;6093548;23;20382;-77
2023/05/21 06:54:58;;;;;;;25.15;17.88;;;17.60;99.90;;;17.09;100.00;96910.03;6093969;23;20402;-76
2023/05/21 06:57:23;;;;;;;24.98;17.42;;;17.60;99.90;;;17.14;100.00;96916.06;6093081;23;20454;-80
2023/05/21 06:59:49;;;;;;;27.15;18.77;;;17.70;99.90;;;17.15;100.00;96914.19;6095138;23;20382;-77
2023/05/21 07:02:15;;;;;;;27.85;18.40;;;17.70;99.90;;;17.17;100.00;96915.47;6094295;23;20377;-77
2023/05/21 07:04:43;;;;;;;25.20;17.73;;;17.70;99.90;;;17.08;100.00;96919.94;6094133;23;20389;-77
2023/05/21 07:07:09;;;;;;;24.50;16.33;;;17.70;99.90;;;17.21;100.00;96921.00;6094479;23;20374;-77
2023/05/21 07:09:34;;;;;;;26.80;16.67;;;17.70;99.90;;;17.19;100.00;96918.63;6094682;23;20375;-77
2023/05/21 07:12:01;;;;;;;22.97;16.27;;;17.70;99.90;;;17.20;100.00;96920.22;6095525;23;20409;-77
2023/05/21 07:14:27;;;;;;;25.65;17.08;;;17.70;99.90;;;17.26;100.00;96921.66;6095240;23;20453;-77
2023/05/21 07:16:52;;;;;;;24.80;16.45;;;17.80;99.90;;;17.44;100.00;96916.44;6096661;23;20409;-78
2023/05/21 07:19:18;;;;;;;26.23;17.65;;;17.90;99.90;;;17.39;100.00;96920.00;6069539;23;20908;-77
2023/05/21 07:21:46;;;;;;;23.33;16.08;;;17.90;99.90;;;17.47;100.00;96924.63;6095342;23;20456;-78
2023/05/21 07:24:12;;;;;;;29.33;16.83;;;18.00;99.90;;;17.53;100.00;96918.03;6095927;23;20371;-77
2023/05/21 07:26:39;;;;;;;23.13;16.60;;;18.10;99.90;;;17.59;100.00;96919.47;6094494;23;20377;-77
2023/05/21 07:29:06;;;;;;;24.48;16.67;;;18.20;99.90;;;17.66;100.00;96925.25;6094464;23;20457;-76
2023/05/21 07:31:32;;;;;;;24.05;17.00;;;18.20;99.90;;;17.73;100.00;96924.78;6093742;23;20505;-76
2023/05/21 07:33:57;;;;;;;24.65;16.13;;;18.30;99.90;;;17.90;100.00;96926.75;6095018;23;20453;-75
2023/05/21 07:36:24;;;;;;;24.13;16.15;;;18.40;99.90;;;18.04;100.00;96930.13;6094203;23;20851;-76
2023/05/21 07:38:52;;;;;;;22.00;15.43;;;18.50;99.90;;;18.11;100.00;96928.56;6094231;23;20374;-76
2023/05/21 07:41:17;;;;;;;25.23;16.38;;;18.70;99.90;;;18.26;100.00;96913.19;6094430;23;20394;-76
2023/05/21 07:43:43;;;;;;;22.70;15.35;;;18.80;99.90;;;18.39;100.00;96926.44;6093946;23;20425;-76
2023/05/21 07:46:09;;;;;;;24.05;16.05;;;18.90;99.90;;;18.44;100.00;96928.16;6094272;23;20371;-75
2023/05/21 07:48:35;;;;;;;21.60;15.63;;;19.00;99.90;;;18.46;100.00;96916.06;6093573;23;20370;-76
2023/05/21 07:51:02;;;;;;;23.08;15.65;;;19.00;99.90;;;18.60;100.00;96907.91;6093777;23;20374;-75
2023/05/21 07:53:31;;;;;;;24.98;16.02;;;19.10;99.90;;;18.73;100.00;96917.69;6093518;23;20375;-76
2023/05/21 07:55:58;;;;;;;21.43;14.50;;;19.20;99.90;;;18.89;100.00;96913.44;6093414;23;20683;-76
2023/05/21 07:58:25;;;;;;;20.20;14.07;;;19.40;99.90;;;18.94;100.00;96909.81;6093647;23;20850;-77
2023/05/21 08:00:52;;;;;;;20.48;14.25;;;19.40;99.90;;;19.01;100.00;96906.66;6094988;23;20389;-77
2023/05/21 08:03:18;;;;;;;22.45;15.30;;;19.50;99.90;;;19.20;100.00;96915.94;6093144;23;20382;-78
2023/05/21 08:05:50;;;;;;;20.27;14.37;;;19.70;99.90;;;19.27;100.00;96915.44;6097223;23;20394;-78
2023/05/21 08:08:17;;;;;;;22.33;14.93;;;19.70;99.90;;;19.30;100.00;96912.16;6096265;23;20370;-76
2023/05/21 08:10:43;;;;;;;22.92;14.88;;;19.80;99.90;;;19.42;100.00;96911.47;6095182;23;20706;-75
2023/05/21 08:13:12;;;;;;;21.45;14.90;;;19.90;96.30;;;19.57;100.00;96913.69;6095411;23;20370;-75
2023/05/21 08:15:39;;;;;;;23.05;14.70;;;20.00;98.00;;;19.70;100.00;96910.78;6095310;23;20377;-75
2023/05/21 08:18:05;;;;;;;22.73;15.40;;;20.10;97.80;;;19.94;100.00;96904.88;6095464;23;20378;-76
2023/05/21 08:20:32;;;;;;;21.00;14.73;;;20.40;98.00;;;19.99;100.00;96898.53;6095479;23;20731;-75
2023/05/21 08:23:01;;;;;;;25.92;14.88;;;20.50;95.10;;;20.14;100.00;96907.94;6094778;23;20374;-76
2023/05/21 08:25:27;;;;;;;17.52;13.57;;;20.60;95.60;;;20.36;100.00;96911.19;6095410;23;20378;-76
2023/05/21 08:27:53;;;;;;;21.17;13.80;;;20.80;97.20;;;20.53;100.00;96912.94;6095415;23;20424;-77
2023/05/21 08:30:21;;;;;;;22.45;14.82;;;20.90;96.60;;;20.82;100.00;96918.28;6095543;23;20458;-76
2023/05/21 08:32:47;;;;;;;23.65;15.18;;;21.20;96.80;;;20.99;100.00;96913.88;6095151;23;20485;-77
2023/05/21 08:35:13;;;;;;;22.08;15.77;;;21.40;95.20;;;21.14;100.00;96915.97;6094806;23;20382;-77
2023/05/21 08:37:39;;;;;;;21.85;14.38;;;21.50;94.10;;;21.26;100.00;96913.38;6095490;23;20856;-77
2023/05/21 08:40:07;;;;;;;21.90;14.25;;;21.70;94.10;;;21.48;100.00;96910.31;6094916;23;20390;-77
2023/05/21 08:42:42;;;;;;;24.42;14.77;;;21.90;94.20;;;21.68;99.46;96915.94;6094925;23;20838;-76
2023/05/21 08:45:13;;;;;;;21.17;14.38;;;22.10;93.40;;;21.61;90.48;96911.91;6094789;23;20378;-77
2023/05/21 08:47:45;;;;;;;19.98;13.07;;;22.00;90.00;;;21.78;94.86;96915.53;6094629;23;20373;-76
2023/05/21 08:50:15;;;;;;;21.45;13.80;;;22.20;91.60;;;22.00;92.67;96910.53;6094727;23;20363;-76
2023/05/21 08:52:42;;;;;;;18.67;13.50;;;22.40;91.00;;;22.15;92.42;96903.69;6094252;23;20453;-76
2023/05/21 08:55:09;;;;;;;21.63;13.27;;;22.50;90.60;;;22.19;88.07;96909.16;6095865;23;20775;-75
2023/05/21 08:57:35;;;;;;;22.13;13.13;;;22.70;87.80;;;22.35;89.76;96913.53;6095193;23;20384;-76
2023/05/21 09:00:06;;;;;;;24.83;13.88;;;22.70;89.20;;;22.57;88.89;96906.88;6094761;23;20425;-77
2023/05/21 09:02:34;;;;;;;21.15;13.18;;;22.90;89.20;;;22.76;88.13;96911.72;6094514;23;20465;-77
2023/05/21 09:05:02;;;;;;;19.13;12.88;;;23.10;88.00;;;22.88;86.51;96908.97;6095409;23;20370;-77
2023/05/21 09:07:30;;;;;;;30.93;13.73;;;23.30;87.00;;;22.99;87.63;96915.50;6095091;23;20370;-76
2023/05/21 09:10:01;;;;;;;19.17;13.23;;;23.40;87.10;;;23.13;83.59;96915.09;6095076;23;20427;-75
2023/05/21 09:12:27;;;;;;;19.58;13.55;;;23.50;84.40;;;22.99;80.40;96910.09;6095262;23;20378;-76
2023/05/21 09:14:55;;;;;;;20.55;13.00;;;23.50;82.10;;;23.09;84.72;96912.28;6095037;23;20370;-75
2023/05/21 09:17:21;;;;;;;23.25;13.60;;;23.60;85.10;;;23.28;85.80;96910.88;6094809;23;20366;-75
2023/05/21 09:20:17;;;;;;;18.15;12.13;;;23.60;85.90;;;23.36;83.61;96907.25;6094802;23;20381;-76
2023/05/21 09:22:45;;;;;;;17.07;11.97;;;23.80;84.10;;;23.30;80.77;96917.50;6094781;23;20413;-76
2023/05/21 09:25:12;;;;;;;19.80;13.30;;;23.70;82.00;;;23.17;79.34;96918.66;6095166;23;20536;-76
2023/05/21 09:27:39;;;;;;;17.73;12.80;;;23.60;81.00;;;23.10;81.04;96926.56;6096135;23;20421;-78
2023/05/21 09:30:10;;;;;;;18.58;12.60;;;23.50;82.10;;;23.06;81.27;96923.78;6097613;23;20735;-78
2023/05/21 09:32:36;;;;;;;24.83;13.70;;;23.40;82.20;;;22.90;78.88;96922.16;6069562;23;20433;-76
2023/05/21 09:35:12;;;;;;;17.85;13.23;;;23.30;80.10;;;22.91;79.74;96921.81;6095657;23;20385;-77
2023/05/21 09:37:39;;;;;;;18.90;12.60;;;23.30;81.60;;;22.96;83.30;96920.78;6096978;23;20438;-74
2023/05/21 09:40:16;;;;;;;23.17;13.52;;;23.40;83.60;;;22.74;82.42;96917.47;6094594;23;20747;-75
2023/05/21 09:42:45;;;;;;;25.83;13.07;;;23.30;82.50;;;22.67;83.27;96930.72;6094178;23;20461;-75
2023/05/21 09:45:16;;;;;;;19.30;12.33;;;23.10;82.90;;;22.67;84.06;96925.31;6093612;23;20374;-75
2023/05/21 09:47:42;;;;;;;20.60;13.32;;;23.10;83.90;;;22.63;83.15;96926.34;6092738;23;20846;-75
2023/05/21 09:50:11;;;;;;;19.85;12.57;;;23.10;83.10;;;22.86;81.76;96922.03;6092262;23;20441;-75
2023/05/21 09:52:37;;;;;;;17.65;11.75;;;23.20;82.60;;;22.99;80.72;96925.50;6091569;23;20930;-75
2023/05/21 09:55:04;;;;;;;19.98;12.70;;;23.40;81.50;;;23.22;82.45;96928.47;6068954;23;20477;-75
2023/05/21 09:57:30;;;;;;;18.50;11.98;;;23.60;82.60;;;23.36;81.12;96926.94;6094343;23;20461;-75
2023/05/21 09:59:56;;;;;;;17.92;12.00;;;23.80;81.80;;;23.56;75.70;96930.56;6093449;23;20895;-75